METAR Data
IDs: Format: Raw Decoded Include TAF

Data at: 2351 UTC 29 May 2020

METAR for:KOTM (Ottumwa Industrial, IA, US)
Text:KOTM 292253Z AUTO 33013G22KT 10SM CLR 21/10 A3012 RMK AO2 SLP197 T02060100
Temperature: 20.6°C ( 69°F)
Dewpoint: 10.0°C ( 50°F) [RH = 51%]
Pressure (altimeter):30.12 inches Hg (1020.1 mb) [Sea level pressure: 1019.7 mb]
Winds:from the NNW (330 degrees) at 15 MPH (13 knots; 6.7 m/s) gusting to 25 MPH (22 knots; 11.3 m/s)
Visibility:10 or more sm (16+ km)
Ceiling:at least 12,000 feet AGL
Clouds:sky clear below 12,000 feet AGL
QC Flag:automated observation with no human augmentation